sensor_id;sensor_type;location;lat;lon;timestamp;temperature;humidity
51476;DHT22;37554;50.362;7.568;2024-01-15T00:00:39;9.90;48.90
51476;DHT22;37554;50.362;7.568;2024-01-15T00:03:04;9.90;48.90
51476;DHT22;37554;50.362;7.568;2024-01-15T00:05:30;9.80;48.80
51476;DHT22;37554;50.362;7.568;2024-01-15T00:07:55;9.80;48.80
51476;DHT22;37554;50.362;7.568;2024-01-15T00:10:21;9.80;48.80
51476;DHT22;37554;50.362;7.568;2024-01-15T00:12:47;9.80;48.60
51476;DHT22;37554;50.362;7.568;2024-01-15T00:15:12;9.80;48.60
51476;DHT22;37554;50.362;7.568;2024-01-15T00:17:38;9.80;48.60
51476;DHT22;37554;50.362;7.568;2024-01-15T00:20:04;9.80;48.60
51476;DHT22;37554;50.362;7.568;2024-01-15T00:22:30;9.80;48.70
51476;DHT22;37554;50.362;7.568;2024-01-15T00:24:57;9.80;48.60
51476;DHT22;37554;50.362;7.568;2024-01-15T00:27:22;9.80;48.60
51476;DHT22;37554;50.362;7.568;2024-01-15T00:29:49;9.80;48.50
51476;DHT22;37554;50.362;7.568;2024-01-15T00:32:16;9.70;48.50
51476;DHT22;37554;50.362;7.568;2024-01-15T00:34:41;9.70;48.60
51476;DHT22;37554;50.362;7.568;2024-01-15T00:37:07;9.80;48.50
51476;DHT22;37554;50.362;7.568;2024-01-15T00:39:33;9.70;48.50
51476;DHT22;37554;50.362;7.568;2024-01-15T00:41:58;9.70;48.60
51476;DHT22;37554;50.362;7.568;2024-01-15T00:44:24;9.70;48.50
51476;DHT22;37554;50.362;7.568;2024-01-15T00:46:49;9.70;48.50
51476;DHT22;37554;50.362;7.568;2024-01-15T00:49:16;9.70;48.50
51476;DHT22;37554;50.362;7.568;2024-01-15T00:51:41;9.70;49.20
51476;DHT22;37554;50.362;7.568;2024-01-15T00:54:07;9.70;48.60
51476;DHT22;37554;50.362;7.568;2024-01-15T00:56:33;9.70;48.60
51476;DHT22;37554;50.362;7.568;2024-01-15T00:58:59;9.70;48.60
51476;DHT22;37554;50.362;7.568;2024-01-15T01:01:24;9.70;48.50
51476;DHT22;37554;50.362;7.568;2024-01-15T01:03:50;9.70;48.60
51476;DHT22;37554;50.362;7.568;2024-01-15T01:06:16;9.70;48.50
51476;DHT22;37554;50.362;7.568;2024-01-15T01:08:41;9.70;48.50
51476;DHT22;37554;50.362;7.568;2024-01-15T01:11:07;9.70;48.50
51476;DHT22;37554;50.362;7.568;2024-01-15T01:13:32;9.70;48.50
51476;DHT22;37554;50.362;7.568;2024-01-15T01:15:58;9.70;48.50
51476;DHT22;37554;50.362;7.568;2024-01-15T01:18:24;9.70;48.50
51476;DHT22;37554;50.362;7.568;2024-01-15T01:20:50;9.70;48.40
51476;DHT22;37554;50.362;7.568;2024-01-15T01:23:16;9.60;48.40
51476;DHT22;37554;50.362;7.568;2024-01-15T01:25:42;9.60;48.50
51476;DHT22;37554;50.362;7.568;2024-01-15T01:28:07;9.60;48.40
51476;DHT22;37554;50.362;7.568;2024-01-15T01:30:33;9.60;48.40
51476;DHT22;37554;50.362;7.568;2024-01-15T01:32:59;9.60;48.40
51476;DHT22;37554;50.362;7.568;2024-01-15T01:35:24;9.60;48.30
51476;DHT22;37554;50.362;7.568;2024-01-15T01:37:50;9.60;48.50
51476;DHT22;37554;50.362;7.568;2024-01-15T01:40:15;9.60;48.40
51476;DHT22;37554;50.362;7.568;2024-01-15T01:42:41;9.60;48.50
51476;DHT22;37554;50.362;7.568;2024-01-15T01:45:08;9.60;48.40
51476;DHT22;37554;50.362;7.568;2024-01-15T01:47:34;9.60;48.40
51476;DHT22;37554;50.362;7.568;2024-01-15T01:49:59;9.60;48.50
51476;DHT22;37554;50.362;7.568;2024-01-15T01:52:26;9.60;48.50
51476;DHT22;37554;50.362;7.568;2024-01-15T01:54:52;9.60;48.50
51476;DHT22;37554;50.362;7.568;2024-01-15T01:57:18;9.60;48.50
51476;DHT22;37554;50.362;7.568;2024-01-15T01:59:45;9.60;48.50
51476;DHT22;37554;50.362;7.568;2024-01-15T02:02:11;9.50;48.50
51476;DHT22;37554;50.362;7.568;2024-01-15T02:04:37;9.50;48.60
51476;DHT22;37554;50.362;7.568;2024-01-15T02:07:03;9.50;48.70
51476;DHT22;37554;50.362;7.568;2024-01-15T02:09:29;9.50;48.70
51476;DHT22;37554;50.362;7.568;2024-01-15T02:11:55;9.50;48.80
51476;DHT22;37554;50.362;7.568;2024-01-15T02:14:21;9.50;48.80
51476;DHT22;37554;50.362;7.568;2024-01-15T02:16:47;9.50;48.80
51476;DHT22;37554;50.362;7.568;2024-01-15T02:19:16;9.50;48.80
51476;DHT22;37554;50.362;7.568;2024-01-15T02:21:42;9.40;48.70
51476;DHT22;37554;50.362;7.568;2024-01-15T02:24:08;9.40;48.70
51476;DHT22;37554;50.362;7.568;2024-01-15T02:26:34;9.40;48.70
51476;DHT22;37554;50.362;7.568;2024-01-15T02:29:01;9.50;48.70
51476;DHT22;37554;50.362;7.568;2024-01-15T02:31:27;9.40;48.70
51476;DHT22;37554;50.362;7.568;2024-01-15T02:33:53;9.40;48.70
51476;DHT22;37554;50.362;7.568;2024-01-15T02:36:18;9.40;48.70
51476;DHT22;37554;50.362;7.568;2024-01-15T02:38:44;9.40;48.70
51476;DHT22;37554;50.362;7.568;2024-01-15T02:41:09;9.40;48.70
51476;DHT22;37554;50.362;7.568;2024-01-15T02:43:35;9.40;48.70
51476;DHT22;37554;50.362;7.568;2024-01-15T02:46:00;9.40;48.70
51476;DHT22;37554;50.362;7.568;2024-01-15T02:48:26;9.30;48.80
51476;DHT22;37554;50.362;7.568;2024-01-15T02:50:52;9.40;48.70
51476;DHT22;37554;50.362;7.568;2024-01-15T02:53:17;9.40;48.80
51476;DHT22;37554;50.362;7.568;2024-01-15T02:55:43;9.40;48.80
51476;DHT22;37554;50.362;7.568;2024-01-15T02:58:08;9.40;48.70
51476;DHT22;37554;50.362;7.568;2024-01-15T03:00:34;9.40;48.80
51476;DHT22;37554;50.362;7.568;2024-01-15T03:02:59;9.30;48.90
51476;DHT22;37554;50.362;7.568;2024-01-15T03:05:25;9.30;48.90
51476;DHT22;37554;50.362;7.568;2024-01-15T03:07:50;9.30;49.00
51476;DHT22;37554;50.362;7.568;2024-01-15T03:10:16;9.30;49.00
51476;DHT22;37554;50.362;7.568;2024-01-15T03:12:42;9.30;49.00
51476;DHT22;37554;50.362;7.568;2024-01-15T03:15:07;9.40;49.10
51476;DHT22;37554;50.362;7.568;2024-01-15T03:17:33;9.30;49.10
51476;DHT22;37554;50.362;7.568;2024-01-15T03:19:59;9.30;49.20
51476;DHT22;37554;50.362;7.568;2024-01-15T03:22:24;9.40;49.20
51476;DHT22;37554;50.362;7.568;2024-01-15T03:24:50;9.40;49.30
51476;DHT22;37554;50.362;7.568;2024-01-15T03:27:15;9.40;49.50
51476;DHT22;37554;50.362;7.568;2024-01-15T03:29:41;9.40;49.40
51476;DHT22;37554;50.362;7.568;2024-01-15T03:32:07;9.40;49.50
51476;DHT22;37554;50.362;7.568;2024-01-15T03:34:32;9.30;49.50
51476;DHT22;37554;50.362;7.568;2024-01-15T03:36:58;9.30;49.40
51476;DHT22;37554;50.362;7.568;2024-01-15T03:39:24;9.30;49.50
51476;DHT22;37554;50.362;7.568;2024-01-15T03:41:50;9.30;49.50
51476;DHT22;37554;50.362;7.568;2024-01-15T03:44:16;9.30;49.60
51476;DHT22;37554;50.362;7.568;2024-01-15T03:46:41;9.30;49.70
51476;DHT22;37554;50.362;7.568;2024-01-15T03:49:07;9.30;49.70
51476;DHT22;37554;50.362;7.568;2024-01-15T03:51:32;9.30;49.70
51476;DHT22;37554;50.362;7.568;2024-01-15T03:53:58;9.30;49.70
51476;DHT22;37554;50.362;7.568;2024-01-15T03:56:24;9.30;49.80
51476;DHT22;37554;50.362;7.568;2024-01-15T03:58:49;9.30;49.70
51476;DHT22;37554;50.362;7.568;2024-01-15T04:01:15;9.30;49.70
51476;DHT22;37554;50.362;7.568;2024-01-15T04:03:40;9.30;49.70
51476;DHT22;37554;50.362;7.568;2024-01-15T04:06:06;9.30;49.70
51476;DHT22;37554;50.362;7.568;2024-01-15T04:08:31;9.30;49.70
51476;DHT22;37554;50.362;7.568;2024-01-15T04:10:57;9.30;49.70
51476;DHT22;37554;50.362;7.568;2024-01-15T04:13:23;9.30;49.80
51476;DHT22;37554;50.362;7.568;2024-01-15T04:15:48;9.30;49.90
51476;DHT22;37554;50.362;7.568;2024-01-15T04:18:16;9.30;49.90
51476;DHT22;37554;50.362;7.568;2024-01-15T04:20:41;9.30;49.80
51476;DHT22;37554;50.362;7.568;2024-01-15T04:23:07;9.30;49.90
51476;DHT22;37554;50.362;7.568;2024-01-15T04:25:33;9.30;50.50
51476;DHT22;37554;50.362;7.568;2024-01-15T04:27:58;9.30;49.80
51476;DHT22;37554;50.362;7.568;2024-01-15T04:30:24;9.30;49.90
51476;DHT22;37554;50.362;7.568;2024-01-15T04:32:49;9.30;49.90
51476;DHT22;37554;50.362;7.568;2024-01-15T04:35:15;9.20;50.00
51476;DHT22;37554;50.362;7.568;2024-01-15T04:37:41;9.30;50.10
51476;DHT22;37554;50.362;7.568;2024-01-15T04:40:07;9.20;50.70
51476;DHT22;37554;50.362;7.568;2024-01-15T04:42:33;9.20;50.20
51476;DHT22;37554;50.362;7.568;2024-01-15T04:44:59;9.20;50.20
51476;DHT22;37554;50.362;7.568;2024-01-15T04:47:24;9.20;50.30
51476;DHT22;37554;50.362;7.568;2024-01-15T04:49:50;9.30;50.30
51476;DHT22;37554;50.362;7.568;2024-01-15T04:52:16;9.20;50.20
51476;DHT22;37554;50.362;7.568;2024-01-15T04:54:42;9.20;50.20
51476;DHT22;37554;50.362;7.568;2024-01-15T04:57:07;9.20;50.20
51476;DHT22;37554;50.362;7.568;2024-01-15T04:59:33;9.20;50.30
51476;DHT22;37554;50.362;7.568;2024-01-15T05:01:58;9.20;50.30
51476;DHT22;37554;50.362;7.568;2024-01-15T05:04:24;9.20;50.30
51476;DHT22;37554;50.362;7.568;2024-01-15T05:06:53;9.20;50.30
51476;DHT22;37554;50.362;7.568;2024-01-15T05:09:19;9.20;50.40
51476;DHT22;37554;50.362;7.568;2024-01-15T05:11:44;9.20;50.40
51476;DHT22;37554;50.362;7.568;2024-01-15T05:14:10;9.20;50.50
51476;DHT22;37554;50.362;7.568;2024-01-15T05:16:38;9.20;50.50
51476;DHT22;37554;50.362;7.568;2024-01-15T05:19:04;9.20;50.50
51476;DHT22;37554;50.362;7.568;2024-01-15T05:21:29;9.10;50.60
51476;DHT22;37554;50.362;7.568;2024-01-15T05:23:55;9.10;50.70
51476;DHT22;37554;50.362;7.568;2024-01-15T05:26:21;9.10;50.70
51476;DHT22;37554;50.362;7.568;2024-01-15T05:28:46;9.10;50.80
51476;DHT22;37554;50.362;7.568;2024-01-15T05:31:12;9.10;50.90
51476;DHT22;37554;50.362;7.568;2024-01-15T05:33:37;9.10;50.90
51476;DHT22;37554;50.362;7.568;2024-01-15T05:36:03;9.20;50.90
51476;DHT22;37554;50.362;7.568;2024-01-15T05:38:29;9.20;50.80
51476;DHT22;37554;50.362;7.568;2024-01-15T05:40:54;9.30;50.90
51476;DHT22;37554;50.362;7.568;2024-01-15T05:43:20;9.40;51.10
51476;DHT22;37554;50.362;7.568;2024-01-15T05:45:45;9.40;51.20
51476;DHT22;37554;50.362;7.568;2024-01-15T05:48:12;9.40;51.10
51476;DHT22;37554;50.362;7.568;2024-01-15T05:50:38;9.50;51.00
51476;DHT22;37554;50.362;7.568;2024-01-15T05:53:03;9.50;51.10
51476;DHT22;37554;50.362;7.568;2024-01-15T05:55:29;9.50;50.90
51476;DHT22;37554;50.362;7.568;2024-01-15T05:57:54;9.60;50.80
51476;DHT22;37554;50.362;7.568;2024-01-15T06:00:20;9.50;50.80
51476;DHT22;37554;50.362;7.568;2024-01-15T06:02:46;9.10;50.80
51476;DHT22;37554;50.362;7.568;2024-01-15T06:05:11;8.70;50.90
51476;DHT22;37554;50.362;7.568;2024-01-15T06:07:37;8.70;51.70
51476;DHT22;37554;50.362;7.568;2024-01-15T06:10:03;8.90;51.50
51476;DHT22;37554;50.362;7.568;2024-01-15T06:12:30;9.10;51.20
51476;DHT22;37554;50.362;7.568;2024-01-15T06:14:56;9.30;50.90
51476;DHT22;37554;50.362;7.568;2024-01-15T06:17:22;9.40;50.70
51476;DHT22;37554;50.362;7.568;2024-01-15T06:19:47;9.50;50.60
51476;DHT22;37554;50.362;7.568;2024-01-15T06:22:13;9.60;50.50
51476;DHT22;37554;50.362;7.568;2024-01-15T06:24:39;9.60;50.40
51476;DHT22;37554;50.362;7.568;2024-01-15T06:27:04;9.70;50.30
51476;DHT22;37554;50.362;7.568;2024-01-15T06:29:31;9.70;50.30
51476;DHT22;37554;50.362;7.568;2024-01-15T06:31:57;9.80;50.30
51476;DHT22;37554;50.362;7.568;2024-01-15T06:34:23;9.80;50.20
51476;DHT22;37554;50.362;7.568;2024-01-15T06:36:48;9.80;50.20
51476;DHT22;37554;50.362;7.568;2024-01-15T06:39:14;9.80;50.20
51476;DHT22;37554;50.362;7.568;2024-01-15T06:41:40;9.90;50.20
51476;DHT22;37554;50.362;7.568;2024-01-15T06:44:12;9.90;50.20
51476;DHT22;37554;50.362;7.568;2024-01-15T06:46:45;9.90;50.20
51476;DHT22;37554;50.362;7.568;2024-01-15T06:49:11;10.00;50.30
51476;DHT22;37554;50.362;7.568;2024-01-15T06:51:37;10.00;50.30
51476;DHT22;37554;50.362;7.568;2024-01-15T06:54:03;10.00;50.30
51476;DHT22;37554;50.362;7.568;2024-01-15T06:56:29;10.00;50.30
51476;DHT22;37554;50.362;7.568;2024-01-15T06:58:55;10.00;50.30
51476;DHT22;37554;50.362;7.568;2024-01-15T07:01:21;10.00;50.30
51476;DHT22;37554;50.362;7.568;2024-01-15T07:03:46;10.00;50.30
51476;DHT22;37554;50.362;7.568;2024-01-15T07:06:15;10.10;50.30
51476;DHT22;37554;50.362;7.568;2024-01-15T07:08:42;10.10;50.20
51476;DHT22;37554;50.362;7.568;2024-01-15T07:11:08;10.10;50.30
51476;DHT22;37554;50.362;7.568;2024-01-15T07:13:34;10.10;50.40
51476;DHT22;37554;50.362;7.568;2024-01-15T07:16:01;10.10;50.40
51476;DHT22;37554;50.362;7.568;2024-01-15T07:18:27;10.10;50.30
51476;DHT22;37554;50.362;7.568;2024-01-15T07:20:52;10.10;50.50
51476;DHT22;37554;50.362;7.568;2024-01-15T07:23:18;10.10;50.50
51476;DHT22;37554;50.362;7.568;2024-01-15T07:25:44;10.10;50.50
51476;DHT22;37554;50.362;7.568;2024-01-15T07:28:10;10.10;50.60
51476;DHT22;37554;50.362;7.568;2024-01-15T07:30:35;10.10;50.60
51476;DHT22;37554;50.362;7.568;2024-01-15T07:33:04;10.10;51.20
51476;DHT22;37554;50.362;7.568;2024-01-15T07:35:30;10.10;50.60
51476;DHT22;37554;50.362;7.568;2024-01-15T07:37:56;10.10;50.60
51476;DHT22;37554;50.362;7.568;2024-01-15T07:40:22;10.10;50.60
51476;DHT22;37554;50.362;7.568;2024-01-15T07:42:47;10.10;50.50
51476;DHT22;37554;50.362;7.568;2024-01-15T07:45:13;10.10;50.50
51476;DHT22;37554;50.362;7.568;2024-01-15T07:47:39;10.10;50.60
51476;DHT22;37554;50.362;7.568;2024-01-15T07:50:05;10.20;50.60
51476;DHT22;37554;50.362;7.568;2024-01-15T07:52:31;10.10;50.50
51476;DHT22;37554;50.362;7.568;2024-01-15T07:54:56;10.20;50.50
51476;DHT22;37554;50.362;7.568;2024-01-15T07:57:25;10.10;50.40
51476;DHT22;37554;50.362;7.568;2024-01-15T07:59:50;10.10;50.40
51476;DHT22;37554;50.362;7.568;2024-01-15T08:02:17;10.10;50.50
51476;DHT22;37554;50.362;7.568;2024-01-15T08:04:42;10.10;50.50
51476;DHT22;37554;50.362;7.568;2024-01-15T08:07:08;10.20;51.30
51476;DHT22;37554;50.362;7.568;2024-01-15T08:09:34;10.10;50.50
51476;DHT22;37554;50.362;7.568;2024-01-15T08:12:00;10.20;50.60
51476;DHT22;37554;50.362;7.568;2024-01-15T08:14:25;10.20;50.50
51476;DHT22;37554;50.362;7.568;2024-01-15T08:16:51;10.20;50.50
51476;DHT22;37554;50.362;7.568;2024-01-15T08:19:17;10.30;50.50
51476;DHT22;37554;50.362;7.568;2024-01-15T08:21:42;10.30;50.40
51476;DHT22;37554;50.362;7.568;2024-01-15T08:24:08;10.30;50.40
51476;DHT22;37554;50.362;7.568;2024-01-15T08:26:34;10.40;50.40
51476;DHT22;37554;50.362;7.568;2024-01-15T08:28:59;10.40;50.40
51476;DHT22;37554;50.362;7.568;2024-01-15T08:31:25;10.40;50.40
51476;DHT22;37554;50.362;7.568;2024-01-15T08:33:51;10.40;50.40
51476;DHT22;37554;50.362;7.568;2024-01-15T08:36:17;10.40;50.30
51476;DHT22;37554;50.362;7.568;2024-01-15T08:38:43;10.40;50.20
51476;DHT22;37554;50.362;7.568;2024-01-15T08:41:08;10.40;50.20
51476;DHT22;37554;50.362;7.568;2024-01-15T08:43:34;10.40;50.20
51476;DHT22;37554;50.362;7.568;2024-01-15T08:46:00;10.50;50.10
51476;DHT22;37554;50.362;7.568;2024-01-15T08:48:26;10.50;50.30
51476;DHT22;37554;50.362;7.568;2024-01-15T08:50:53;10.50;50.30
51476;DHT22;37554;50.362;7.568;2024-01-15T08:53:19;10.50;50.20
51476;DHT22;37554;50.362;7.568;2024-01-15T08:55:45;10.60;50.20
51476;DHT22;37554;50.362;7.568;2024-01-15T08:58:11;10.60;50.10
51476;DHT22;37554;50.362;7.568;2024-01-15T09:00:36;10.60;50.10
51476;DHT22;37554;50.362;7.568;2024-01-15T09:03:02;10.60;50.00
51476;DHT22;37554;50.362;7.568;2024-01-15T09:05:28;10.60;49.90
51476;DHT22;37554;50.362;7.568;2024-01-15T09:07:54;10.60;49.80
51476;DHT22;37554;50.362;7.568;2024-01-15T09:10:20;10.60;49.80
51476;DHT22;37554;50.362;7.568;2024-01-15T09:12:46;10.60;49.70
51476;DHT22;37554;50.362;7.568;2024-01-15T09:15:12;10.60;49.70
51476;DHT22;37554;50.362;7.568;2024-01-15T09:17:38;10.60;49.70
51476;DHT22;37554;50.362;7.568;2024-01-15T09:20:04;10.70;49.70
51476;DHT22;37554;50.362;7.568;2024-01-15T09:22:31;10.70;50.30
51476;DHT22;37554;50.362;7.568;2024-01-15T09:24:58;10.60;49.70
51476;DHT22;37554;50.362;7.568;2024-01-15T09:27:24;10.60;50.20
51476;DHT22;37554;50.362;7.568;2024-01-15T09:29:52;10.60;49.70
51476;DHT22;37554;50.362;7.568;2024-01-15T09:32:17;10.60;49.70
51476;DHT22;37554;50.362;7.568;2024-01-15T09:34:43;10.60;49.70
51476;DHT22;37554;50.362;7.568;2024-01-15T09:37:09;10.60;49.60
51476;DHT22;37554;50.362;7.568;2024-01-15T09:39:34;10.60;49.50
51476;DHT22;37554;50.362;7.568;2024-01-15T09:42:01;10.60;49.50
51476;DHT22;37554;50.362;7.568;2024-01-15T09:44:27;10.70;49.40
51476;DHT22;37554;50.362;7.568;2024-01-15T09:46:53;10.80;49.20
51476;DHT22;37554;50.362;7.568;2024-01-15T09:49:20;10.90;49.00
51476;DHT22;37554;50.362;7.568;2024-01-15T09:51:47;10.90;48.80
51476;DHT22;37554;50.362;7.568;2024-01-15T09:54:13;11.00;48.80
51476;DHT22;37554;50.362;7.568;2024-01-15T09:56:45;11.10;48.70
51476;DHT22;37554;50.362;7.568;2024-01-15T09:59:13;11.10;48.70
51476;DHT22;37554;50.362;7.568;2024-01-15T10:01:40;11.20;48.70
51476;DHT22;37554;50.362;7.568;2024-01-15T10:04:07;11.20;48.70
51476;DHT22;37554;50.362;7.568;2024-01-15T10:06:33;11.20;48.60
51476;DHT22;37554;50.362;7.568;2024-01-15T10:08:59;11.30;48.90
51476;DHT22;37554;50.362;7.568;2024-01-15T10:11:25;11.20;48.90
51476;DHT22;37554;50.362;7.568;2024-01-15T10:13:52;11.20;48.90
51476;DHT22;37554;50.362;7.568;2024-01-15T10:16:21;11.20;48.90
51476;DHT22;37554;50.362;7.568;2024-01-15T10:18:48;11.20;48.80
51476;DHT22;37554;50.362;7.568;2024-01-15T10:21:13;11.20;48.80
51476;DHT22;37554;50.362;7.568;2024-01-15T10:23:39;11.20;48.80
51476;DHT22;37554;50.362;7.568;2024-01-15T10:26:05;11.20;48.80
51476;DHT22;37554;50.362;7.568;2024-01-15T10:28:31;11.30;48.70
51476;DHT22;37554;50.362;7.568;2024-01-15T10:30:58;11.30;48.70
51476;DHT22;37554;50.362;7.568;2024-01-15T10:33:26;11.40;48.60
51476;DHT22;37554;50.362;7.568;2024-01-15T10:35:57;11.30;48.50
51476;DHT22;37554;50.362;7.568;2024-01-15T10:38:23;11.40;48.50
51476;DHT22;37554;50.362;7.568;2024-01-15T10:40:56;11.40;48.60
51476;DHT22;37554;50.362;7.568;2024-01-15T10:43:22;11.30;48.50
51476;DHT22;37554;50.362;7.568;2024-01-15T10:45:49;11.30;48.60
51476;DHT22;37554;50.362;7.568;2024-01-15T10:48:19;11.20;48.70
51476;DHT22;37554;50.362;7.568;2024-01-15T10:50:45;11.20;48.80
51476;DHT22;37554;50.362;7.568;2024-01-15T10:53:12;11.20;48.90
51476;DHT22;37554;50.362;7.568;2024-01-15T10:55:39;11.20;48.90
51476;DHT22;37554;50.362;7.568;2024-01-15T10:58:08;11.30;48.90
51476;DHT22;37554;50.362;7.568;2024-01-15T11:00:35;11.20;48.80
51476;DHT22;37554;50.362;7.568;2024-01-15T11:03:05;11.30;48.80
51476;DHT22;37554;50.362;7.568;2024-01-15T11:05:37;11.30;48.80
51476;DHT22;37554;50.362;7.568;2024-01-15T11:08:06;11.20;48.80
51476;DHT22;37554;50.362;7.568;2024-01-15T11:10:50;11.20;48.90
51476;DHT22;37554;50.362;7.568;2024-01-15T11:13:43;11.20;49.10
51476;DHT22;37554;50.362;7.568;2024-01-15T11:16:13;11.20;49.10
51476;DHT22;37554;50.362;7.568;2024-01-15T11:21:24;11.20;49.20
51476;DHT22;37554;50.362;7.568;2024-01-15T11:23:59;11.20;49.20
51476;DHT22;37554;50.362;7.568;2024-01-15T11:26:44;11.20;49.10
51476;DHT22;37554;50.362;7.568;2024-01-15T11:29:29;11.20;49.00
51476;DHT22;37554;50.362;7.568;2024-01-15T11:34:20;11.20;49.10
51476;DHT22;37554;50.362;7.568;2024-01-15T11:41:54;11.30;49.10
51476;DHT22;37554;50.362;7.568;2024-01-15T11:44:21;11.20;49.10
51476;DHT22;37554;50.362;7.568;2024-01-15T11:52:01;11.20;49.50
51476;DHT22;37554;50.362;7.568;2024-01-15T11:54:32;11.20;49.60
51476;DHT22;37554;50.362;7.568;2024-01-15T11:57:00;11.20;49.60
51476;DHT22;37554;50.362;7.568;2024-01-15T11:59:29;11.30;49.70
51476;DHT22;37554;50.362;7.568;2024-01-15T12:01:54;11.20;49.70
51476;DHT22;37554;50.362;7.568;2024-01-15T12:04:21;11.20;49.80
51476;DHT22;37554;50.362;7.568;2024-01-15T12:06:46;11.20;49.90
51476;DHT22;37554;50.362;7.568;2024-01-15T12:09:12;11.20;50.10
51476;DHT22;37554;50.362;7.568;2024-01-15T12:11:40;11.20;50.20
51476;DHT22;37554;50.362;7.568;2024-01-15T12:14:08;11.10;50.30
51476;DHT22;37554;50.362;7.568;2024-01-15T12:16:33;11.10;50.40
51476;DHT22;37554;50.362;7.568;2024-01-15T12:18:59;11.10;50.60
51476;DHT22;37554;50.362;7.568;2024-01-15T12:21:26;11.10;50.60
51476;DHT22;37554;50.362;7.568;2024-01-15T12:23:52;11.10;50.70
51476;DHT22;37554;50.362;7.568;2024-01-15T12:26:19;11.20;50.80
51476;DHT22;37554;50.362;7.568;2024-01-15T12:28:45;11.10;50.80
51476;DHT22;37554;50.362;7.568;2024-01-15T12:31:11;11.20;50.90
51476;DHT22;37554;50.362;7.568;2024-01-15T12:33:36;11.10;50.80
51476;DHT22;37554;50.362;7.568;2024-01-15T12:36:03;10.80;50.90
51476;DHT22;37554;50.362;7.568;2024-01-15T12:38:29;10.30;51.70
51476;DHT22;37554;50.362;7.568;2024-01-15T12:40:54;9.90;52.60
51476;DHT22;37554;50.362;7.568;2024-01-15T12:43:20;9.70;53.80
51476;DHT22;37554;50.362;7.568;2024-01-15T12:45:46;10.00;54.40
51476;DHT22;37554;50.362;7.568;2024-01-15T12:48:11;10.30;53.80
51476;DHT22;37554;50.362;7.568;2024-01-15T12:50:38;10.60;53.40
51476;DHT22;37554;50.362;7.568;2024-01-15T12:53:04;10.80;53.00
51476;DHT22;37554;50.362;7.568;2024-01-15T12:55:30;11.00;52.60
51476;DHT22;37554;50.362;7.568;2024-01-15T12:57:55;11.30;52.30
51476;DHT22;37554;50.362;7.568;2024-01-15T13:00:21;11.50;52.00
51476;DHT22;37554;50.362;7.568;2024-01-15T13:02:46;11.70;51.70
51476;DHT22;37554;50.362;7.568;2024-01-15T13:05:12;11.80;51.50
51476;DHT22;37554;50.362;7.568;2024-01-15T13:07:38;11.90;51.30
51476;DHT22;37554;50.362;7.568;2024-01-15T13:10:05;12.00;51.30
51476;DHT22;37554;50.362;7.568;2024-01-15T13:12:50;12.00;51.20
51476;DHT22;37554;50.362;7.568;2024-01-15T13:15:16;12.00;51.40
51476;DHT22;37554;50.362;7.568;2024-01-15T13:17:42;11.90;51.40
51476;DHT22;37554;50.362;7.568;2024-01-15T13:20:08;11.90;51.50
51476;DHT22;37554;50.362;7.568;2024-01-15T13:22:36;11.90;51.50
51476;DHT22;37554;50.362;7.568;2024-01-15T13:25:04;11.80;51.70
51476;DHT22;37554;50.362;7.568;2024-01-15T13:27:32;11.80;51.80
51476;DHT22;37554;50.362;7.568;2024-01-15T13:29:58;11.80;51.90
51476;DHT22;37554;50.362;7.568;2024-01-15T13:32:25;11.80;51.90
51476;DHT22;37554;50.362;7.568;2024-01-15T13:34:51;11.70;51.90
51476;DHT22;37554;50.362;7.568;2024-01-15T13:37:17;11.70;51.90
51476;DHT22;37554;50.362;7.568;2024-01-15T13:39:43;11.70;51.90
51476;DHT22;37554;50.362;7.568;2024-01-15T13:42:09;11.60;51.90
51476;DHT22;37554;50.362;7.568;2024-01-15T13:44:37;11.60;52.00
51476;DHT22;37554;50.362;7.568;2024-01-15T13:47:03;11.60;52.00
51476;DHT22;37554;50.362;7.568;2024-01-15T13:49:28;11.70;51.90
51476;DHT22;37554;50.362;7.568;2024-01-15T13:51:54;11.70;51.60
51476;DHT22;37554;50.362;7.568;2024-01-15T13:54:20;11.80;51.40
51476;DHT22;37554;50.362;7.568;2024-01-15T13:56:46;11.70;51.30
51476;DHT22;37554;50.362;7.568;2024-01-15T13:59:12;11.70;51.30
51476;DHT22;37554;50.362;7.568;2024-01-15T14:01:38;11.70;51.30
51476;DHT22;37554;50.362;7.568;2024-01-15T14:04:04;11.70;51.20
51476;DHT22;37554;50.362;7.568;2024-01-15T14:06:29;11.70;51.20
51476;DHT22;37554;50.362;7.568;2024-01-15T14:08:55;11.60;51.10
51476;DHT22;37554;50.362;7.568;2024-01-15T14:11:21;11.50;51.00
51476;DHT22;37554;50.362;7.568;2024-01-15T14:13:48;11.50;51.00
51476;DHT22;37554;50.362;7.568;2024-01-15T14:16:13;11.50;51.00
51476;DHT22;37554;50.362;7.568;2024-01-15T14:18:39;11.40;50.90
51476;DHT22;37554;50.362;7.568;2024-01-15T14:21:05;11.40;50.90
51476;DHT22;37554;50.362;7.568;2024-01-15T14:23:30;11.40;50.90
51476;DHT22;37554;50.362;7.568;2024-01-15T14:25:56;11.40;50.90
51476;DHT22;37554;50.362;7.568;2024-01-15T14:28:22;11.40;51.60
51476;DHT22;37554;50.362;7.568;2024-01-15T14:30:48;11.40;51.10
51476;DHT22;37554;50.362;7.568;2024-01-15T14:33:14;11.40;51.20
51476;DHT22;37554;50.362;7.568;2024-01-15T14:35:40;11.40;51.20
51476;DHT22;37554;50.362;7.568;2024-01-15T14:38:05;11.40;51.20
51476;DHT22;37554;50.362;7.568;2024-01-15T14:40:33;11.40;51.20
51476;DHT22;37554;50.362;7.568;2024-01-15T14:42:59;11.40;51.20
51476;DHT22;37554;50.362;7.568;2024-01-15T14:45:24;11.40;51.20
51476;DHT22;37554;50.362;7.568;2024-01-15T14:47:52;11.50;51.20
51476;DHT22;37554;50.362;7.568;2024-01-15T14:50:18;11.40;51.10
51476;DHT22;37554;50.362;7.568;2024-01-15T14:52:43;11.40;51.10
51476;DHT22;37554;50.362;7.568;2024-01-15T14:55:10;11.50;51.20
51476;DHT22;37554;50.362;7.568;2024-01-15T14:57:36;11.40;51.20
51476;DHT22;37554;50.362;7.568;2024-01-15T15:00:03;11.40;51.20
51476;DHT22;37554;50.362;7.568;2024-01-15T15:02:32;11.40;51.20
51476;DHT22;37554;50.362;7.568;2024-01-15T15:05:00;11.40;51.20
51476;DHT22;37554;50.362;7.568;2024-01-15T15:07:26;11.40;51.10
51476;DHT22;37554;50.362;7.568;2024-01-15T15:09:51;11.40;51.10
51476;DHT22;37554;50.362;7.568;2024-01-15T15:12:17;11.40;51.00
51476;DHT22;37554;50.362;7.568;2024-01-15T15:14:43;11.40;51.00
51476;DHT22;37554;50.362;7.568;2024-01-15T15:17:09;11.40;51.00
51476;DHT22;37554;50.362;7.568;2024-01-15T15:19:38;11.30;51.60
51476;DHT22;37554;50.362;7.568;2024-01-15T15:22:05;11.30;51.00
51476;DHT22;37554;50.362;7.568;2024-01-15T15:24:31;11.30;51.00
51476;DHT22;37554;50.362;7.568;2024-01-15T15:26:56;11.30;51.00
51476;DHT22;37554;50.362;7.568;2024-01-15T15:29:22;11.30;51.10
51476;DHT22;37554;50.362;7.568;2024-01-15T15:31:50;11.30;51.20
51476;DHT22;37554;50.362;7.568;2024-01-15T15:34:15;11.30;52.10
51476;DHT22;37554;50.362;7.568;2024-01-15T15:36:41;11.30;52.10
51476;DHT22;37554;50.362;7.568;2024-01-15T15:39:07;11.30;52.20
51476;DHT22;37554;50.362;7.568;2024-01-15T15:41:32;11.30;52.30
51476;DHT22;37554;50.362;7.568;2024-01-15T15:43:58;11.30;52.40
51476;DHT22;37554;50.362;7.568;2024-01-15T15:46:23;11.30;52.50